createdAt,value
2022-09-09T00:01:02.392Z,0.60
2022-09-09T00:03:31.804Z,0.93
2022-09-09T00:06:02.134Z,0.80
2022-09-09T00:08:48.181Z,0.63
2022-09-09T00:11:17.464Z,0.70
2022-09-09T00:13:54.703Z,0.73
2022-09-09T00:16:25.077Z,0.60
2022-09-09T00:18:55.322Z,0.70
2022-09-09T00:21:24.426Z,0.45
2022-09-09T00:23:57.569Z,0.60
2022-09-09T00:26:37.082Z,0.60
2022-09-09T00:29:04.147Z,0.90
2022-09-09T00:31:32.284Z,0.60
2022-09-09T00:34:22.511Z,0.80
2022-09-09T00:36:52.059Z,0.80
2022-09-09T00:39:25.641Z,1.00
2022-09-09T00:41:52.642Z,1.45
2022-09-09T00:44:22.688Z,0.88
2022-09-09T00:47:01.981Z,0.88
2022-09-09T00:49:47.497Z,1.05
2022-09-09T00:52:19.346Z,1.00
2022-09-09T00:55:05.060Z,1.10
2022-09-09T00:57:36.301Z,0.80
2022-09-09T01:00:21.151Z,0.90
2022-09-09T01:02:54.815Z,1.00
2022-09-09T01:05:27.255Z,1.10
2022-09-09T01:07:58.338Z,0.90
2022-09-09T01:10:47.233Z,1.00
2022-09-09T01:13:24.084Z,1.17
2022-09-09T01:15:56.330Z,1.10
2022-09-09T01:18:29.538Z,1.00
2022-09-09T01:21:11.710Z,1.00
2022-09-09T01:23:54.055Z,1.10
2022-09-09T01:26:29.859Z,1.00
2022-09-09T01:28:56.876Z,1.23
2022-09-09T01:31:42.164Z,1.20
2022-09-09T01:34:17.958Z,1.10
2022-09-09T01:36:47.924Z,1.20
2022-09-09T01:39:15.062Z,1.25
2022-09-09T01:41:42.230Z,1.50
2022-09-09T01:44:10.097Z,1.30
2022-09-09T01:46:37.216Z,1.58
2022-09-09T01:49:05.582Z,1.40
2022-09-09T01:51:32.887Z,1.60
2022-09-09T01:53:59.985Z,1.48
2022-09-09T01:56:32.836Z,2.13
2022-09-09T01:59:05.237Z,1.50
2022-09-09T02:01:42.268Z,1.75
2022-09-09T02:04:18.566Z,1.10
2022-09-09T02:06:47.523Z,1.70
2022-09-09T02:09:14.617Z,1.60
2022-09-09T02:11:43.391Z,1.30
2022-09-09T02:14:13.738Z,1.60
2022-09-09T02:16:43.939Z,1.48
2022-09-09T02:19:13.694Z,1.63
2022-09-09T02:21:41.238Z,1.60
2022-09-09T02:24:11.169Z,1.50
2022-09-09T02:26:41.988Z,1.50
2022-09-09T02:29:11.202Z,1.10
2022-09-09T02:31:38.555Z,1.20
2022-09-09T02:34:07.093Z,1.48
2022-09-09T02:36:35.927Z,1.20
2022-09-09T02:39:04.270Z,0.95
2022-09-09T02:41:35.525Z,0.90
2022-09-09T02:44:02.753Z,1.00
2022-09-09T02:46:48.814Z,1.00
2022-09-09T02:49:40.083Z,1.08
2022-09-09T02:52:16.438Z,1.00
2022-09-09T02:54:44.457Z,0.88
2022-09-09T02:57:17.940Z,1.05
2022-09-09T02:59:45.718Z,1.05
2022-09-09T03:02:13.903Z,1.33
2022-09-09T03:04:43.997Z,1.10
2022-09-09T03:07:11.147Z,1.30
2022-09-09T03:09:38.266Z,1.58
2022-09-09T03:12:05.627Z,1.10
2022-09-09T03:14:32.680Z,1.40
2022-09-09T03:17:01.833Z,1.30
2022-09-09T03:19:28.869Z,1.60
2022-09-09T03:21:55.859Z,1.40
2022-09-09T03:24:23.644Z,1.40
2022-09-09T03:26:51.496Z,1.40
2022-09-09T03:29:19.428Z,1.50
2022-09-09T03:31:47.182Z,1.40
2022-09-09T03:34:14.694Z,1.35
2022-09-09T03:36:42.193Z,1.63
2022-09-09T03:39:09.279Z,1.27
2022-09-09T03:41:38.209Z,1.45
2022-09-09T03:44:05.274Z,1.40
2022-09-09T03:46:32.924Z,1.65
2022-09-09T03:48:59.970Z,1.95
2022-09-09T03:51:26.981Z,1.70
2022-09-09T03:53:56.369Z,1.80
2022-09-09T03:56:23.400Z,1.70
2022-09-09T03:58:50.390Z,1.90
2022-09-09T04:01:18.804Z,1.90
2022-09-09T04:03:46.313Z,1.70
2022-09-09T04:06:15.430Z,1.52
2022-09-09T04:08:42.678Z,1.67
2022-09-09T04:11:10.568Z,1.83
2022-09-09T04:13:41.137Z,1.67
2022-09-09T04:16:09.199Z,1.83
2022-09-09T04:18:36.517Z,1.90
2022-09-09T04:21:04.589Z,2.05
2022-09-09T04:23:31.592Z,2.13
2022-09-09T04:25:59.620Z,1.85
2022-09-09T04:28:27.600Z,2.00
2022-09-09T04:30:54.835Z,2.03
2022-09-09T04:33:22.060Z,2.03
2022-09-09T04:35:50.271Z,1.83
2022-09-09T04:38:18.134Z,1.70
2022-09-09T04:40:46.517Z,1.70
2022-09-09T04:43:14.571Z,2.22
2022-09-09T04:45:42.083Z,2.17
2022-09-09T04:48:10.486Z,1.75
2022-09-09T04:50:37.527Z,1.60
2022-09-09T04:53:05.797Z,1.50
2022-09-09T04:55:33.255Z,1.60
2022-09-09T04:58:04.341Z,1.30
2022-09-09T05:00:31.415Z,1.50
2022-09-09T05:02:58.501Z,1.27
2022-09-09T05:05:26.540Z,1.33
2022-09-09T05:07:53.581Z,1.45
2022-09-09T05:10:20.614Z,1.55
2022-09-09T05:12:54.459Z,1.35
2022-09-09T05:15:22.244Z,1.63
2022-09-09T05:17:49.236Z,1.95
2022-09-09T05:20:17.529Z,1.80
2022-09-09T05:22:44.847Z,1.30
2022-09-09T05:25:11.916Z,2.10
2022-09-09T05:27:38.950Z,1.60
2022-09-09T05:30:06.123Z,2.20
2022-09-09T05:32:34.950Z,1.77
2022-09-09T05:35:02.487Z,2.45
2022-09-09T05:37:31.150Z,2.30
2022-09-09T05:39:58.939Z,2.28
2022-09-09T05:42:26.041Z,2.10
2022-09-09T05:44:55.226Z,2.35
2022-09-09T05:47:22.289Z,2.03
2022-09-09T05:49:50.317Z,2.50
2022-09-09T05:52:17.340Z,2.20
2022-09-09T05:54:44.833Z,2.40
2022-09-09T05:57:11.824Z,2.25
2022-09-09T05:59:39.264Z,2.00
2022-09-09T06:02:06.425Z,1.92
2022-09-09T06:04:33.679Z,1.80
2022-09-09T06:07:00.798Z,1.67
2022-09-09T06:09:27.840Z,1.90
2022-09-09T06:11:55.215Z,1.98
2022-09-09T06:14:22.790Z,2.95
2022-09-09T06:16:50.471Z,2.47
2022-09-09T06:19:17.498Z,2.65
2022-09-09T06:21:45.331Z,2.47
2022-09-09T06:24:14.698Z,2.00
2022-09-09T06:26:42.052Z,2.00
2022-09-09T06:29:09.341Z,1.50
2022-09-09T06:31:37.712Z,2.42
2022-09-09T06:34:08.631Z,1.73
2022-09-09T06:36:39.590Z,2.22
2022-09-09T06:39:12.113Z,2.08
2022-09-09T06:41:41.915Z,1.48
2022-09-09T06:44:08.953Z,0.82
2022-09-09T06:46:36.536Z,1.70
2022-09-09T06:49:03.748Z,1.40
2022-09-09T06:51:32.163Z,1.50
2022-09-09T06:54:00.296Z,1.60
2022-09-09T06:56:42.785Z,1.48
2022-09-09T06:59:10.179Z,1.60
2022-09-09T07:01:39.031Z,2.45
2022-09-09T07:04:08.615Z,1.73
2022-09-09T07:06:36.628Z,1.73
2022-09-09T07:09:05.325Z,1.60
2022-09-09T07:11:33.809Z,1.60
2022-09-09T07:14:01.214Z,1.40
2022-09-09T07:16:28.728Z,1.98
2022-09-09T07:18:58.906Z,1.63
2022-09-09T07:21:27.451Z,1.60
2022-09-09T07:23:55.446Z,1.55
2022-09-09T07:26:23.899Z,1.58
2022-09-09T07:28:51.220Z,1.70
2022-09-09T07:31:23.276Z,1.20
2022-09-09T07:33:50.348Z,1.30
2022-09-09T07:36:17.373Z,2.65
2022-09-09T07:38:46.459Z,1.70
2022-09-09T07:41:18.774Z,1.48
2022-09-09T07:43:46.595Z,1.50
2022-09-09T07:46:22.903Z,1.70
2022-09-09T07:48:54.786Z,1.30
2022-09-09T07:51:26.172Z,1.20
2022-09-09T07:53:54.522Z,1.83
2022-09-09T07:56:24.133Z,1.15
2022-09-09T07:58:52.318Z,1.25
2022-09-09T08:01:21.126Z,2.25
2022-09-09T08:03:50.913Z,1.65
2022-09-09T08:06:21.734Z,1.58
2022-09-09T08:08:51.801Z,1.92
2022-09-09T08:11:19.105Z,1.70
2022-09-09T08:13:49.798Z,1.60
2022-09-09T08:16:22.441Z,1.52
2022-09-09T08:18:50.580Z,1.80
2022-09-09T08:21:18.936Z,1.23
2022-09-09T08:23:46.950Z,1.75
2022-09-09T08:26:15.695Z,1.42
2022-09-09T08:28:43.260Z,1.77
2022-09-09T08:31:11.912Z,1.98
2022-09-09T08:33:39.453Z,1.73
2022-09-09T08:36:07.970Z,1.85
2022-09-09T08:38:35.142Z,1.50
2022-09-09T08:41:22.384Z,1.45
2022-09-09T08:43:51.751Z,1.42
2022-09-09T08:46:18.931Z,1.52
2022-09-09T08:49:00.039Z,1.02
2022-09-09T08:51:32.482Z,1.60
2022-09-09T08:54:01.031Z,1.75
2022-09-09T08:56:29.550Z,1.45
2022-09-09T08:58:58.296Z,1.33
2022-09-09T09:01:43.268Z,1.50
2022-09-09T09:04:28.560Z,1.23
2022-09-09T09:07:05.738Z,1.00
2022-09-09T09:09:38.782Z,0.95
2022-09-09T09:12:15.609Z,1.17
2022-09-09T09:14:45.065Z,1.45
2022-09-09T09:17:14.289Z,1.00
2022-09-09T09:19:41.975Z,1.50
2022-09-09T09:22:23.300Z,1.40
2022-09-09T09:25:06.052Z,0.88
2022-09-09T09:27:34.732Z,0.90
2022-09-09T09:33:04.480Z,1.20
2022-09-09T09:35:31.538Z,1.13
2022-09-09T09:40:58.821Z,1.30
2022-09-09T09:43:36.176Z,1.35
2022-09-09T09:46:17.592Z,1.35
2022-09-09T09:48:47.184Z,1.48
2022-09-09T09:51:16.935Z,1.15
2022-09-09T09:53:44.421Z,1.10
2022-09-09T09:56:13.056Z,0.82
2022-09-09T09:58:46.574Z,1.35
2022-09-09T10:01:25.399Z,1.60
2022-09-09T10:03:53.957Z,1.35
2022-09-09T10:06:34.438Z,1.10
2022-09-09T10:09:02.615Z,1.75
2022-09-09T10:11:45.021Z,1.40
2022-09-09T10:14:20.866Z,1.25
2022-09-09T10:16:53.866Z,0.95
2022-09-09T10:19:23.835Z,1.30
2022-09-09T10:22:09.528Z,1.40
2022-09-09T10:24:55.501Z,1.00
2022-09-09T10:27:26.656Z,1.42
2022-09-09T10:29:53.713Z,1.25
2022-09-09T10:32:28.928Z,1.27
2022-09-09T10:35:14.387Z,1.30
2022-09-09T10:37:59.569Z,0.95
2022-09-09T10:40:45.396Z,1.10
2022-09-09T10:43:12.399Z,1.17
2022-09-09T10:45:45.639Z,1.08
2022-09-09T10:48:31.660Z,1.05
2022-09-09T10:51:05.223Z,1.20
2022-09-09T10:53:52.937Z,1.40
2022-09-09T10:56:21.795Z,1.42
2022-09-09T10:58:48.793Z,1.25
2022-09-09T11:01:24.474Z,1.20
2022-09-09T11:03:56.965Z,0.90
2022-09-09T11:06:27.388Z,1.55
2022-09-09T11:08:57.066Z,1.00
2022-09-09T11:11:30.937Z,1.40
2022-09-09T11:14:07.534Z,1.15
2022-09-09T11:16:37.405Z,1.13
2022-09-09T11:19:17.140Z,1.20
2022-09-09T11:21:47.401Z,1.05
2022-09-09T11:24:38.356Z,1.02
2022-09-09T11:27:10.369Z,0.80
2022-09-09T11:29:48.478Z,0.80
2022-09-09T11:32:23.940Z,0.80
2022-09-09T11:35:11.959Z,0.90
2022-09-09T11:37:54.331Z,0.75
2022-09-09T11:40:23.637Z,1.00
2022-09-09T11:42:50.911Z,0.93
2022-09-09T11:45:26.723Z,1.10
2022-09-09T11:47:55.330Z,0.80
2022-09-09T11:50:22.312Z,0.82
2022-09-09T11:52:50.436Z,1.02
2022-09-09T11:55:28.141Z,1.10
2022-09-09T11:58:05.288Z,1.27
2022-09-09T12:00:34.458Z,1.02
2022-09-09T12:03:01.546Z,1.30
2022-09-09T12:05:39.615Z,1.00
2022-09-09T12:08:07.259Z,1.00
2022-09-09T12:10:35.646Z,1.30
2022-09-09T12:13:21.505Z,1.38
2022-09-09T12:15:50.590Z,1.95
2022-09-09T12:18:24.838Z,1.30
2022-09-09T12:20:58.723Z,1.25
2022-09-09T12:23:46.167Z,1.40
2022-09-09T12:26:29.020Z,1.52
2022-09-09T12:29:05.187Z,1.35
2022-09-09T12:31:45.763Z,0.90
2022-09-09T12:34:13.037Z,1.40
2022-09-09T12:36:41.591Z,1.40
2022-09-09T12:39:17.489Z,1.05
2022-09-09T12:41:55.837Z,1.40
2022-09-09T12:44:23.800Z,1.10
2022-09-09T12:46:51.262Z,0.98
2022-09-09T12:49:29.350Z,1.50
2022-09-09T12:51:58.302Z,1.90
2022-09-09T12:54:25.359Z,3.00
2022-09-09T12:56:52.496Z,1.15
2022-09-09T12:59:27.164Z,1.42
2022-09-09T13:01:58.260Z,1.30
2022-09-09T13:04:25.460Z,1.27
2022-09-09T13:06:56.426Z,1.05
2022-09-09T13:09:23.621Z,1.00
2022-09-09T13:11:55.969Z,1.10
2022-09-09T13:14:30.723Z,1.20
2022-09-09T13:16:59.089Z,1.10
2022-09-09T13:19:29.802Z,1.10
2022-09-09T13:21:57.210Z,0.95
2022-09-09T13:24:32.409Z,1.20
2022-09-09T13:27:02.787Z,1.10
2022-09-09T13:29:30.570Z,1.23
2022-09-09T13:32:08.682Z,1.42
2022-09-09T13:34:36.538Z,1.10
2022-09-09T13:37:06.665Z,1.20
2022-09-09T13:39:37.919Z,1.40
2022-09-09T13:42:05.501Z,1.33
2022-09-09T13:44:35.598Z,1.13
2022-09-09T13:47:07.995Z,1.00
2022-09-09T13:49:37.178Z,1.20
2022-09-09T13:52:24.429Z,1.08
2022-09-09T13:54:52.160Z,1.42
2022-09-09T13:57:20.853Z,1.42
2022-09-09T14:00:04.224Z,1.48
2022-09-09T14:02:32.457Z,1.10
2022-09-09T14:04:59.529Z,0.65
2022-09-09T14:07:26.564Z,0.70
2022-09-09T14:09:53.602Z,0.45
2022-09-09T14:12:21.009Z,0.60
2022-09-09T14:14:48.094Z,0.45
2022-09-09T14:17:15.685Z,0.82
2022-09-09T14:19:43.662Z,0.40
2022-09-09T14:22:10.732Z,0.50
2022-09-09T14:24:37.873Z,0.60
2022-09-09T14:27:04.861Z,0.95
2022-09-09T14:29:32.186Z,0.73
2022-09-09T14:32:01.877Z,0.68
2022-09-09T14:34:28.878Z,0.70
2022-09-09T14:36:56.737Z,0.63
2022-09-09T14:39:23.734Z,0.70
2022-09-09T14:41:50.765Z,0.80
2022-09-09T14:44:17.922Z,0.60
2022-09-09T14:46:44.934Z,0.65
2022-09-09T14:49:13.849Z,0.60
2022-09-09T14:51:40.885Z,0.85
2022-09-09T14:54:07.889Z,0.60
2022-09-09T14:56:35.588Z,0.60
2022-09-09T14:59:02.964Z,0.55
2022-09-09T15:01:30.574Z,0.60
2022-09-09T15:04:01.408Z,0.57
2022-09-09T15:06:30.163Z,0.57
2022-09-09T15:08:58.684Z,0.70
2022-09-09T15:11:28.696Z,0.57
2022-09-09T15:13:55.878Z,1.08
2022-09-09T15:16:24.202Z,0.88
2022-09-09T15:18:55.742Z,0.70
2022-09-09T15:21:24.363Z,0.80
2022-09-09T15:23:52.135Z,0.80
2022-09-09T15:26:19.514Z,0.70
2022-09-09T15:28:48.242Z,0.88
2022-09-09T15:31:18.335Z,1.02
2022-09-09T15:34:01.331Z,1.10
2022-09-09T15:36:29.857Z,1.00
2022-09-09T15:38:57.102Z,1.10
2022-09-09T15:41:24.543Z,1.20
2022-09-09T15:43:57.492Z,0.90
2022-09-09T15:46:29.366Z,1.10
2022-09-09T15:48:57.372Z,0.88
2022-09-09T15:51:41.703Z,0.70
2022-09-09T15:54:10.108Z,1.00
2022-09-09T15:56:37.168Z,1.23
2022-09-09T15:59:04.265Z,1.20
2022-09-09T16:01:32.037Z,1.10
2022-09-09T16:04:00.835Z,1.30
2022-09-09T16:06:29.220Z,1.40
2022-09-09T16:08:57.443Z,1.25
2022-09-09T16:11:28.634Z,0.70
2022-09-09T16:13:56.390Z,1.05
2022-09-09T16:16:25.123Z,0.98
2022-09-09T16:18:53.611Z,1.50
2022-09-09T16:21:22.193Z,1.23
2022-09-09T16:23:50.848Z,1.95
2022-09-09T16:26:18.725Z,1.40
2022-09-09T16:28:47.294Z,1.30
2022-09-09T16:31:17.399Z,1.27
2022-09-09T16:33:45.098Z,1.30
2022-09-09T16:36:14.787Z,1.17
2022-09-09T16:38:42.179Z,1.20
2022-09-09T16:41:10.742Z,1.50
2022-09-09T16:43:38.460Z,1.15
2022-09-09T16:46:12.794Z,1.20
2022-09-09T16:48:39.875Z,1.52
2022-09-09T16:51:08.440Z,0.88
2022-09-09T16:53:35.785Z,1.60
2022-09-09T16:56:09.432Z,1.38
2022-09-09T16:58:37.032Z,1.13
2022-09-09T17:01:04.595Z,1.27
2022-09-09T17:03:32.538Z,1.48
2022-09-09T17:06:02.924Z,1.33
2022-09-09T17:08:31.238Z,1.40
2022-09-09T17:10:59.069Z,1.30
2022-09-09T17:13:27.591Z,1.50
2022-09-09T17:15:56.092Z,1.50
2022-09-09T17:18:25.923Z,1.50
2022-09-09T17:20:52.958Z,1.48
2022-09-09T17:23:20.480Z,1.75
2022-09-09T17:25:57.746Z,0.88
2022-09-09T17:28:28.335Z,1.63
2022-09-09T17:30:55.446Z,1.50
2022-09-09T17:33:22.456Z,1.60
2022-09-09T17:35:49.986Z,1.27
2022-09-09T17:38:17.079Z,1.10
2022-09-09T17:40:44.101Z,1.30
2022-09-09T17:43:11.449Z,1.40
2022-09-09T17:45:38.541Z,1.70
2022-09-09T17:48:07.823Z,1.50
2022-09-09T17:50:34.839Z,0.70
2022-09-09T17:53:03.232Z,1.63
2022-09-09T17:55:30.260Z,1.73
2022-09-09T17:57:57.277Z,1.80
2022-09-09T18:00:24.284Z,1.95
2022-09-09T18:02:51.332Z,1.27
2022-09-09T18:05:19.043Z,1.60
2022-09-09T18:07:46.104Z,2.40
2022-09-09T18:10:13.114Z,2.00
2022-09-09T18:12:40.155Z,1.50
2022-09-09T18:15:07.430Z,1.42
2022-09-09T18:17:34.573Z,1.48
2022-09-09T18:20:01.628Z,1.30
2022-09-09T18:22:31.154Z,1.65
2022-09-09T18:24:58.350Z,1.58
2022-09-09T18:27:25.398Z,1.67
2022-09-09T18:29:52.396Z,1.80
2022-09-09T18:32:19.965Z,1.77
2022-09-09T18:34:47.091Z,1.60
2022-09-09T18:37:14.715Z,1.20
2022-09-09T18:39:41.799Z,1.20
2022-09-09T18:42:08.891Z,0.85
2022-09-09T18:44:36.199Z,0.90
2022-09-09T18:47:03.906Z,0.88
2022-09-09T18:49:30.998Z,1.13
2022-09-09T18:51:59.065Z,0.90
2022-09-09T18:54:29.408Z,0.82
2022-09-09T18:56:56.484Z,0.80
2022-09-09T18:59:24.500Z,1.70
2022-09-09T19:01:52.272Z,1.05
2022-09-09T19:04:21.106Z,0.70
2022-09-09T19:06:49.009Z,0.65
2022-09-09T19:09:18.122Z,1.00
2022-09-09T19:11:45.332Z,0.90
2022-09-09T19:14:13.435Z,1.20
2022-09-09T19:16:40.780Z,0.73
2022-09-09T19:19:09.528Z,0.80
2022-09-09T19:21:38.179Z,0.70
2022-09-09T19:24:11.513Z,0.73
2022-09-09T19:26:41.499Z,0.98
2022-09-09T19:29:10.078Z,0.90
2022-09-09T19:31:38.253Z,0.82
2022-09-09T19:34:05.642Z,0.95
2022-09-09T19:36:32.666Z,1.10
2022-09-09T19:39:00.396Z,1.27
2022-09-09T19:41:29.024Z,1.10
2022-09-09T19:44:01.885Z,1.10
2022-09-09T19:46:30.328Z,1.00
2022-09-09T19:48:58.202Z,1.05
2022-09-09T19:51:26.709Z,0.90
2022-09-09T19:53:58.203Z,0.90
2022-09-09T19:56:28.405Z,1.00
2022-09-09T19:58:55.951Z,0.90
2022-09-09T20:01:24.016Z,0.90
2022-09-09T20:03:52.246Z,0.90
2022-09-09T20:06:21.442Z,0.68
2022-09-09T20:08:48.873Z,0.85
2022-09-09T20:11:17.126Z,0.80
2022-09-09T20:13:44.673Z,0.90
2022-09-09T20:16:13.223Z,0.70
2022-09-09T20:18:41.985Z,0.80
2022-09-09T20:21:13.297Z,0.90
2022-09-09T20:23:40.960Z,0.93
2022-09-09T20:26:09.171Z,1.10
2022-09-09T20:28:37.035Z,0.80
2022-09-09T20:31:05.294Z,1.05
2022-09-09T20:33:32.357Z,1.10
2022-09-09T20:36:05.086Z,1.27
2022-09-09T20:38:35.634Z,0.90
2022-09-09T20:41:03.414Z,0.90
2022-09-09T20:43:30.495Z,1.33
2022-09-09T20:45:58.030Z,1.17
2022-09-09T20:48:26.049Z,1.05
2022-09-09T20:50:54.016Z,1.13
2022-09-09T20:53:21.049Z,1.05
2022-09-09T20:55:50.792Z,1.30
2022-09-09T20:58:18.043Z,1.15
2022-09-09T21:00:45.050Z,1.30
2022-09-09T21:03:12.068Z,1.30
2022-09-09T21:05:39.103Z,1.42
2022-09-09T21:08:06.083Z,1.20
2022-09-09T21:10:33.098Z,1.30
2022-09-09T21:13:01.360Z,1.45
2022-09-09T21:15:28.402Z,1.20
2022-09-09T21:17:55.547Z,1.20
2022-09-09T21:20:22.604Z,1.20
2022-09-09T21:22:49.650Z,1.17
2022-09-09T21:25:17.019Z,1.27
2022-09-09T21:27:44.052Z,1.58
2022-09-09T21:30:11.335Z,1.33
2022-09-09T21:32:38.353Z,1.30
2022-09-09T21:35:06.869Z,1.30
2022-09-09T21:37:34.188Z,1.05
2022-09-09T21:40:01.855Z,1.08
2022-09-09T21:42:28.890Z,1.13
2022-09-09T21:44:55.869Z,1.27
2022-09-09T21:47:22.891Z,1.10
2022-09-09T21:49:49.902Z,1.45
2022-09-09T21:52:17.014Z,1.50
2022-09-09T21:54:44.358Z,1.40
2022-09-09T21:57:14.162Z,1.30
2022-09-09T21:59:42.147Z,1.40
2022-09-09T22:02:10.829Z,1.10
2022-09-09T22:04:38.694Z,1.20
2022-09-09T22:07:06.795Z,1.10
2022-09-09T22:09:34.504Z,1.63
2022-09-09T22:12:01.893Z,1.48
2022-09-09T22:14:28.971Z,1.38
2022-09-09T22:16:55.988Z,1.10
2022-09-09T22:19:23.010Z,2.17
2022-09-09T22:21:50.025Z,0.90
2022-09-09T22:24:17.037Z,1.17
2022-09-09T22:26:44.060Z,1.25
2022-09-09T22:29:11.653Z,1.23
2022-09-09T22:31:38.759Z,1.10
2022-09-09T22:34:06.055Z,0.85
2022-09-09T22:36:33.153Z,0.90
2022-09-09T22:39:01.043Z,1.00
2022-09-09T22:41:29.925Z,0.98
2022-09-09T22:43:58.256Z,1.00
2022-09-09T22:46:25.265Z,0.70
2022-09-09T22:48:52.300Z,1.00
2022-09-09T22:51:19.336Z,0.77
2022-09-09T22:53:46.659Z,0.88
2022-09-09T22:56:17.849Z,0.90
2022-09-09T22:58:46.008Z,1.02
2022-09-09T23:01:15.300Z,0.90
2022-09-09T23:03:45.881Z,1.20
2022-09-09T23:06:20.000Z,0.93
2022-09-09T23:08:48.843Z,1.15
2022-09-09T23:11:16.191Z,0.85
2022-09-09T23:13:44.512Z,1.02
2022-09-09T23:16:12.813Z,0.55
2022-09-09T23:18:43.539Z,0.80
2022-09-09T23:21:11.639Z,1.08
2022-09-09T23:23:41.235Z,0.70
2022-09-09T23:26:09.361Z,0.80
2022-09-09T23:28:37.677Z,0.80
2022-09-09T23:31:12.851Z,1.10
2022-09-09T23:33:40.241Z,0.68
2022-09-09T23:36:09.275Z,0.93
2022-09-09T23:38:37.918Z,0.70
2022-09-09T23:41:06.330Z,0.70
2022-09-09T23:43:39.253Z,0.65
2022-09-09T23:46:08.661Z,0.90
2022-09-09T23:48:37.678Z,0.55
2022-09-09T23:51:05.222Z,0.50
2022-09-09T23:53:32.635Z,1.08
2022-09-09T23:56:00.125Z,0.63
2022-09-09T23:58:27.130Z,0.75
